Time;durP1;ratioP1;P1;durP2;ratioP2;P2;SDS_P1;SDS_P2;PMS_P1;PMS_P2;Temp;Humidity;BMP_temperature;BMP_pressure;BME280_temperature;BME280_humidity;BME280_pressure;Samples;Min_cycle;Max_cycle;Signal;HPM_P1;HPM_P2
2021/10/01 00:00:17;;;;;;;1.10;0.70;;;;;;;;;;5053321;28;20472;-48
2021/10/01 00:02:45;;;;;;;1.77;1.13;;;;;;;;;;5043278;28;20475;-51
2021/10/01 00:05:13;;;;;;;1.07;0.90;;;;;;;;;;5048093;28;20447;-46
2021/10/01 00:07:40;;;;;;;1.10;0.70;;;;;;;;;;5039539;28;20557;-45
2021/10/01 00:10:08;;;;;;;0.97;0.70;;;;;;;;;;5034812;28;20478;-46
2021/10/01 00:12:35;;;;;;;1.27;0.73;;;;;;;;;;5034859;28;21023;-52
2021/10/01 00:15:02;;;;;;;1.00;0.80;;;;;;;;;;5049935;28;20462;-48
2021/10/01 00:17:29;;;;;;;1.10;0.80;;;;;;;;;;5054216;28;20438;-51
2021/10/01 00:19:56;;;;;;;1.00;0.90;;;;;;;;;;5057780;28;20480;-48
2021/10/01 00:22:24;;;;;;;2.17;0.90;;;;;;;;;;5040157;28;20462;-46
2021/10/01 00:24:52;;;;;;;1.00;0.70;;;;;;;;;;5040142;28;20457;-49
2021/10/01 00:27:19;;;;;;;1.07;0.83;;;;;;;;;;5035679;28;20516;-48
2021/10/01 00:29:46;;;;;;;1.20;0.83;;;;;;;;;;5050586;28;20478;-50
2021/10/01 00:32:13;;;;;;;1.00;0.80;;;;;;;;;;5047708;28;20442;-50
2021/10/01 00:34:40;;;;;;;1.87;0.90;;;;;;;;;;5038344;28;20455;-47
2021/10/01 00:37:07;;;;;;;3.53;0.87;;;;;;;;;;5042770;28;20450;-50
2021/10/01 00:39:36;;;;;;;0.90;0.80;;;;;;;;;;5060743;28;20507;-49
2021/10/01 00:42:03;;;;;;;1.07;0.87;;;;;;;;;;5041494;28;20461;-49
2021/10/01 00:44:30;;;;;;;1.20;0.87;;;;;;;;;;5033151;28;20439;-49
2021/10/01 00:46:57;;;;;;;1.10;0.80;;;;;;;;;;5033296;28;20447;-46
2021/10/01 00:49:24;;;;;;;1.43;0.80;;;;;;;;;;5056761;28;20462;-48
2021/10/01 00:51:52;;;;;;;1.10;0.70;;;;;;;;;;5036130;28;20458;-47
2021/10/01 00:54:20;;;;;;;1.43;0.90;;;;;;;;;;5049443;28;20458;-46
2021/10/01 00:56:48;;;;;;;1.10;0.77;;;;;;;;;;5044728;28;20516;-49
2021/10/01 00:59:15;;;;;;;1.00;0.80;;;;;;;;;;5052332;28;20528;-46
2021/10/01 01:01:42;;;;;;;1.63;0.80;;;;;;;;;;5042293;28;20461;-48
2021/10/01 01:04:09;;;;;;;1.20;0.80;;;;;;;;;;5050143;28;20438;-47
2021/10/01 01:06:39;;;;;;;1.20;0.90;;;;;;;;;;5048004;28;21037;-48
2021/10/01 01:09:10;;;;;;;1.40;0.93;;;;;;;;;;5049655;28;20452;-46
2021/10/01 01:11:45;;;;;;;1.20;0.80;;;;;;;;;;5045665;28;20467;-47
2021/10/01 01:14:16;;;;;;;1.50;0.93;;;;;;;;;;5039771;28;20476;-47
2021/10/01 01:16:44;;;;;;;1.03;0.87;;;;;;;;;;5032525;28;20443;-48
2021/10/01 01:19:14;;;;;;;1.20;0.83;;;;;;;;;;5052671;28;20469;-48
2021/10/01 01:21:51;;;;;;;1.20;0.80;;;;;;;;;;5049163;28;20465;-48
2021/10/01 01:24:35;;;;;;;1.00;0.80;;;;;;;;;;5041460;28;20529;-47
2021/10/01 01:27:11;;;;;;;1.37;0.70;;;;;;;;;;5045547;28;20459;-46
2021/10/01 01:29:39;;;;;;;1.00;0.80;;;;;;;;;;5049016;28;20520;-47
2021/10/01 01:32:15;;;;;;;1.30;0.90;;;;;;;;;;5040888;28;20508;-48
2021/10/01 01:34:45;;;;;;;2.90;0.80;;;;;;;;;;5039952;28;20463;-45
2021/10/01 01:37:14;;;;;;;0.97;0.73;;;;;;;;;;5064325;28;20449;-48
2021/10/01 01:39:42;;;;;;;0.90;0.70;;;;;;;;;;5053445;28;20913;-46
2021/10/01 01:42:09;;;;;;;1.30;0.90;;;;;;;;;;5046865;28;20524;-46
2021/10/01 01:44:36;;;;;;;1.30;0.80;;;;;;;;;;5039762;28;20443;-46
2021/10/01 01:47:04;;;;;;;1.60;0.97;;;;;;;;;;5050709;28;20442;-47
2021/10/01 01:49:33;;;;;;;1.63;0.80;;;;;;;;;;5049149;28;20457;-49
2021/10/01 01:52:01;;;;;;;1.27;0.80;;;;;;;;;;5052366;28;20446;-49
2021/10/01 01:54:29;;;;;;;1.43;0.80;;;;;;;;;;5043988;28;20466;-47
2021/10/01 01:56:56;;;;;;;1.17;0.77;;;;;;;;;;5045603;28;20950;-48
2021/10/01 01:59:25;;;;;;;1.10;0.80;;;;;;;;;;5050487;28;20883;-50
2021/10/01 02:01:53;;;;;;;1.20;0.90;;;;;;;;;;5042905;28;20508;-46
2021/10/01 02:04:21;;;;;;;1.33;0.80;;;;;;;;;;5047893;28;20852;-47
2021/10/01 02:06:50;;;;;;;1.30;0.90;;;;;;;;;;5053531;28;20461;-48
2021/10/01 02:09:18;;;;;;;1.10;1.00;;;;;;;;;;5051579;28;20458;-48
2021/10/01 02:11:46;;;;;;;1.10;0.70;;;;;;;;;;5045472;28;20458;-47
2021/10/01 02:14:13;;;;;;;1.20;0.90;;;;;;;;;;5044302;28;20503;-47
2021/10/01 02:16:41;;;;;;;1.73;1.00;;;;;;;;;;5048863;28;20515;-47
2021/10/01 02:19:08;;;;;;;1.17;0.80;;;;;;;;;;5063516;28;20931;-46
2021/10/01 02:21:36;;;;;;;2.17;0.87;;;;;;;;;;5038368;28;20458;-48
2021/10/01 02:24:05;;;;;;;1.00;0.77;;;;;;;;;;5047551;28;20454;-49
2021/10/01 02:26:35;;;;;;;1.10;0.70;;;;;;;;;;5057634;28;20467;-47
2021/10/01 02:29:04;;;;;;;1.70;1.10;;;;;;;;;;5049805;28;20535;-49
2021/10/01 02:31:34;;;;;;;0.90;0.60;;;;;;;;;;5036240;28;20466;-48
2021/10/01 02:34:03;;;;;;;1.00;0.70;;;;;;;;;;5033272;28;20957;-50
2021/10/01 02:36:32;;;;;;;1.33;0.80;;;;;;;;;;5034492;28;20557;-50
2021/10/01 02:38:59;;;;;;;1.67;0.87;;;;;;;;;;5046353;28;20441;-46
2021/10/01 02:41:27;;;;;;;1.93;1.23;;;;;;;;;;5052304;28;20479;-51
2021/10/01 02:43:54;;;;;;;1.07;0.80;;;;;;;;;;5042272;28;20446;-45
2021/10/01 02:46:21;;;;;;;1.73;0.70;;;;;;;;;;5049698;28;20448;-47
2021/10/01 02:48:48;;;;;;;1.17;0.87;;;;;;;;;;5053440;28;20457;-47
2021/10/01 02:51:16;;;;;;;1.23;0.90;;;;;;;;;;5048198;28;20465;-46
2021/10/01 02:53:48;;;;;;;0.93;0.70;;;;;;;;;;5047243;28;20462;-47
2021/10/01 02:56:17;;;;;;;1.03;0.80;;;;;;;;;;5038490;28;20949;-46
2021/10/01 02:58:47;;;;;;;1.60;0.70;;;;;;;;;;5041421;28;20448;-46
2021/10/01 03:01:15;;;;;;;0.90;0.60;;;;;;;;;;5036934;28;20470;-48
2021/10/01 03:03:44;;;;;;;1.00;0.87;;;;;;;;;;5049832;28;20492;-47
2021/10/01 03:06:11;;;;;;;1.10;0.80;;;;;;;;;;5046374;28;20982;-47
2021/10/01 03:08:39;;;;;;;1.17;0.80;;;;;;;;;;5055520;28;20972;-46
2021/10/01 03:11:11;;;;;;;1.20;0.83;;;;;;;;;;5049433;28;20450;-48
2021/10/01 03:13:38;;;;;;;1.00;0.80;;;;;;;;;;5037690;28;20534;-46
2021/10/01 03:16:07;;;;;;;1.20;0.80;;;;;;;;;;5031654;28;20443;-45
2021/10/01 03:18:34;;;;;;;0.90;0.70;;;;;;;;;;5048856;28;20446;-48
2021/10/01 03:21:03;;;;;;;1.10;0.80;;;;;;;;;;5049672;28;20482;-51
2021/10/01 03:23:30;;;;;;;0.90;0.70;;;;;;;;;;5032836;28;20493;-50
2021/10/01 03:25:57;;;;;;;1.20;0.95;;;;;;;;;;5031212;28;20450;-46
2021/10/01 03:28:24;;;;;;;1.00;0.70;;;;;;;;;;5045206;28;20196;-46
2021/10/01 03:30:52;;;;;;;1.50;1.20;;;;;;;;;;5046591;28;20470;-45
2021/10/01 03:33:24;;;;;;;1.55;0.88;;;;;;;;;;5030652;28;20473;-45
2021/10/01 03:35:51;;;;;;;1.00;0.70;;;;;;;;;;5042538;28;20203;-47
2021/10/01 03:38:19;;;;;;;1.17;0.80;;;;;;;;;;5050556;28;20454;-45
2021/10/01 03:40:47;;;;;;;1.00;0.80;;;;;;;;;;5052229;28;20551;-45
2021/10/01 03:43:14;;;;;;;1.57;0.97;;;;;;;;;;5062894;28;20461;-49
2021/10/01 03:45:41;;;;;;;1.00;0.70;;;;;;;;;;5048321;28;21014;-45
2021/10/01 03:48:09;;;;;;;0.90;0.70;;;;;;;;;;5051939;28;20453;-45
2021/10/01 03:50:38;;;;;;;1.00;0.70;;;;;;;;;;5069321;28;20449;-47
2021/10/01 03:53:05;;;;;;;1.00;0.70;;;;;;;;;;5039101;28;20458;-47
2021/10/01 03:55:32;;;;;;;1.00;0.70;;;;;;;;;;5060407;28;20453;-45
2021/10/01 03:57:59;;;;;;;1.03;0.77;;;;;;;;;;5039125;28;20458;-47
2021/10/01 04:00:26;;;;;;;0.90;0.70;;;;;;;;;;5040061;28;20473;-46
2021/10/01 04:02:53;;;;;;;1.63;1.00;;;;;;;;;;5043835;28;20466;-45
2021/10/01 04:05:20;;;;;;;1.00;0.70;;;;;;;;;;5040940;28;20466;-49
2021/10/01 04:07:49;;;;;;;1.30;0.83;;;;;;;;;;5040155;28;20504;-45
2021/10/01 04:10:16;;;;;;;1.30;0.80;;;;;;;;;;5041205;28;20446;-45
2021/10/01 04:12:44;;;;;;;1.10;0.70;;;;;;;;;;5034334;28;20463;-46
2021/10/01 04:15:12;;;;;;;1.10;0.90;;;;;;;;;;5061608;28;20446;-45
2021/10/01 04:17:39;;;;;;;1.13;1.00;;;;;;;;;;5052898;28;20457;-47
2021/10/01 04:20:07;;;;;;;1.10;0.77;;;;;;;;;;5055617;28;20972;-46
2021/10/01 04:22:34;;;;;;;1.03;0.87;;;;;;;;;;5049336;28;20454;-45
2021/10/01 04:25:02;;;;;;;1.03;0.80;;;;;;;;;;5053375;28;20496;-47
2021/10/01 04:27:29;;;;;;;1.20;0.80;;;;;;;;;;5045224;28;21008;-47
2021/10/01 04:29:57;;;;;;;1.17;0.77;;;;;;;;;;5033903;28;20512;-45
2021/10/01 04:32:24;;;;;;;1.43;0.83;;;;;;;;;;5056043;28;20477;-45
2021/10/01 04:35:00;;;;;;;1.43;0.70;;;;;;;;;;5061969;28;20444;-47
2021/10/01 04:37:27;;;;;;;1.33;0.73;;;;;;;;;;5049871;28;20449;-47
2021/10/01 04:39:54;;;;;;;1.03;0.77;;;;;;;;;;5035878;28;20597;-46
2021/10/01 04:42:23;;;;;;;1.83;0.70;;;;;;;;;;5033721;28;20550;-51
2021/10/01 04:44:50;;;;;;;1.20;0.80;;;;;;;;;;5046053;28;20887;-45
2021/10/01 04:47:17;;;;;;;1.20;0.70;;;;;;;;;;5066289;28;20936;-47
2021/10/01 04:49:44;;;;;;;1.00;0.70;;;;;;;;;;5052147;28;20496;-46
2021/10/01 04:52:11;;;;;;;1.30;0.90;;;;;;;;;;5034446;28;20463;-50
2021/10/01 04:54:38;;;;;;;1.23;0.70;;;;;;;;;;5048281;28;20990;-47
2021/10/01 04:57:07;;;;;;;1.43;0.87;;;;;;;;;;5039971;28;20467;-46
2021/10/01 04:59:35;;;;;;;1.07;0.80;;;;;;;;;;5042190;28;20465;-46
2021/10/01 05:02:03;;;;;;;1.00;0.80;;;;;;;;;;5039670;28;20503;-47
2021/10/01 05:04:30;;;;;;;1.30;0.80;;;;;;;;;;5048358;28;20442;-50
2021/10/01 05:06:57;;;;;;;1.30;0.90;;;;;;;;;;5053981;28;20526;-49
2021/10/01 05:09:24;;;;;;;0.93;0.70;;;;;;;;;;5050619;28;20446;-46
2021/10/01 05:11:51;;;;;;;1.00;0.70;;;;;;;;;;5040488;28;20960;-46
2021/10/01 05:14:18;;;;;;;1.00;0.60;;;;;;;;;;5048565;28;20461;-48
2021/10/01 05:16:46;;;;;;;1.43;0.87;;;;;;;;;;5059297;28;20945;-48
2021/10/01 05:19:13;;;;;;;0.90;0.70;;;;;;;;;;5042686;28;20505;-46
2021/10/01 05:21:40;;;;;;;1.07;0.70;;;;;;;;;;5032921;28;20698;-48
2021/10/01 05:24:07;;;;;;;1.20;0.70;;;;;;;;;;5039198;28;20526;-49
2021/10/01 05:26:34;;;;;;;1.00;0.80;;;;;;;;;;5032887;28;20538;-45
2021/10/01 05:29:02;;;;;;;1.10;1.00;;;;;;;;;;5049377;28;20531;-45
2021/10/01 05:31:29;;;;;;;1.00;0.70;;;;;;;;;;5045006;28;20470;-46
2021/10/01 05:33:58;;;;;;;1.03;0.70;;;;;;;;;;5043836;28;20458;-46
2021/10/01 05:36:25;;;;;;;1.10;0.70;;;;;;;;;;5033431;28;20458;-48
2021/10/01 05:38:52;;;;;;;1.20;0.70;;;;;;;;;;5051175;28;20945;-45
2021/10/01 05:41:21;;;;;;;1.50;1.00;;;;;;;;;;5046421;28;20544;-45
2021/10/01 05:43:48;;;;;;;1.57;0.80;;;;;;;;;;5032568;28;20448;-46
2021/10/01 05:46:16;;;;;;;1.00;0.87;;;;;;;;;;5054354;28;20454;-49
2021/10/01 05:48:48;;;;;;;1.00;0.70;;;;;;;;;;5047522;28;20445;-47
2021/10/01 05:51:17;;;;;;;1.03;0.80;;;;;;;;;;5043289;28;20819;-46
2021/10/01 05:54:11;;;;;;;1.10;0.70;;;;;;;;;;5044199;28;20500;-49
2021/10/01 05:56:38;;;;;;;1.10;0.70;;;;;;;;;;5044692;28;20469;-50
2021/10/01 05:59:06;;;;;;;1.00;0.70;;;;;;;;;;5040035;28;20948;-48
2021/10/01 06:01:34;;;;;;;0.90;0.70;;;;;;;;;;5048141;28;20474;-49
2021/10/01 06:04:01;;;;;;;0.90;0.70;;;;;;;;;;5049726;28;20441;-46
2021/10/01 06:06:29;;;;;;;1.00;0.70;;;;;;;;;;5051111;28;20518;-48
2021/10/01 06:08:56;;;;;;;1.00;0.70;;;;;;;;;;5051130;28;20438;-46
2021/10/01 06:11:23;;;;;;;1.00;0.67;;;;;;;;;;5046919;28;21027;-48
2021/10/01 06:13:50;;;;;;;0.80;0.60;;;;;;;;;;5033240;28;20447;-48
2021/10/01 06:16:17;;;;;;;1.00;0.70;;;;;;;;;;5040178;28;20496;-46
2021/10/01 06:18:44;;;;;;;1.07;0.83;;;;;;;;;;5044111;28;20507;-46
2021/10/01 06:21:11;;;;;;;1.00;0.80;;;;;;;;;;5039573;28;20474;-47
2021/10/01 06:23:40;;;;;;;0.80;0.60;;;;;;;;;;5038662;28;20803;-47
2021/10/01 06:26:07;;;;;;;0.90;0.60;;;;;;;;;;5049295;28;20534;-45
2021/10/01 06:28:34;;;;;;;1.00;0.70;;;;;;;;;;5045694;28;20473;-47
2021/10/01 06:31:02;;;;;;;1.20;0.70;;;;;;;;;;5047431;28;20519;-46
2021/10/01 06:33:29;;;;;;;0.90;0.70;;;;;;;;;;5046894;28;20467;-47
2021/10/01 06:35:56;;;;;;;1.00;0.70;;;;;;;;;;5036662;28;20473;-46
2021/10/01 06:38:23;;;;;;;1.13;0.83;;;;;;;;;;5049726;28;20602;-47
2021/10/01 06:40:52;;;;;;;1.10;0.70;;;;;;;;;;5036674;28;20861;-47
2021/10/01 06:43:19;;;;;;;1.00;0.70;;;;;;;;;;5038699;28;20528;-45
2021/10/01 06:45:49;;;;;;;1.00;0.80;;;;;;;;;;5045218;28;20461;-48
2021/10/01 06:48:24;;;;;;;1.20;1.00;;;;;;;;;;5053865;28;20442;-45
2021/10/01 07:34:23;;;;;;;3.00;1.07;;;;;;;;;;5049802;28;20513;-48
2021/10/01 08:19:08;;;;;;;1.80;1.00;;;;;;;;;;5065150;28;20441;-49
2021/10/01 08:21:35;;;;;;;2.03;1.00;;;;;;;;;;5051023;28;20469;-49
2021/10/01 08:24:02;;;;;;;1.73;0.93;;;;;;;;;;5053751;28;20472;-49
2021/10/01 08:26:30;;;;;;;1.30;1.00;;;;;;;;;;5048882;28;21020;-49
2021/10/01 08:28:57;;;;;;;4.60;1.00;;;;;;;;;;5034113;28;20500;-50
2021/10/01 08:31:27;;;;;;;1.40;0.93;;;;;;;;;;5041237;28;20528;-53
2021/10/01 08:33:55;;;;;;;3.43;1.20;;;;;;;;;;5033906;28;20447;-48
2021/10/01 08:36:22;;;;;;;2.50;0.90;;;;;;;;;;5039893;28;20952;-47
2021/10/01 08:38:49;;;;;;;1.97;1.10;;;;;;;;;;5047553;28;20864;-47
2021/10/01 08:41:17;;;;;;;1.30;0.80;;;;;;;;;;5034542;28;20483;-48
2021/10/01 08:43:45;;;;;;;1.73;0.90;;;;;;;;;;5055413;28;20448;-48
2021/10/01 08:46:12;;;;;;;1.30;0.90;;;;;;;;;;5051604;28;20519;-46
2021/10/01 08:48:39;;;;;;;1.10;0.80;;;;;;;;;;5053270;28;20466;-48
2021/10/01 08:51:09;;;;;;;1.30;0.90;;;;;;;;;;5052821;28;20462;-49
2021/10/01 08:53:36;;;;;;;2.23;1.00;;;;;;;;;;5061244;28;20497;-48
2021/10/01 08:56:04;;;;;;;2.90;1.83;;;;;;;;;;5066470;28;20517;-48
2021/10/01 08:58:31;;;;;;;1.53;1.10;;;;;;;;;;5033159;28;20454;-48
2021/10/01 09:00:59;;;;;;;2.70;1.10;;;;;;;;;;5036148;28;20973;-49
2021/10/01 09:03:26;;;;;;;2.97;1.17;;;;;;;;;;5055645;28;20452;-52
2021/10/01 09:05:54;;;;;;;1.30;0.87;;;;;;;;;;5047683;28;20450;-52
2021/10/01 09:08:23;;;;;;;2.30;1.00;;;;;;;;;;5036191;28;20892;-51
2021/10/01 09:10:58;;;;;;;1.40;1.00;;;;;;;;;;5045877;28;20447;-51
2021/10/01 09:13:25;;;;;;;1.23;0.90;;;;;;;;;;5044153;28;20511;-56
2021/10/01 09:15:59;;;;;;;2.03;1.10;;;;;;;;;;5034079;28;20446;-53
2021/10/01 09:18:27;;;;;;;1.30;0.90;;;;;;;;;;5035275;28;20858;-52
2021/10/01 09:21:03;;;;;;;3.73;1.33;;;;;;;;;;5033914;28;20443;-55
2021/10/01 09:23:33;;;;;;;7.10;1.40;;;;;;;;;;5053026;28;20523;-55
2021/10/01 09:26:07;;;;;;;12.43;0.97;;;;;;;;;;5048689;28;20620;-50
2021/10/01 09:28:44;;;;;;;2.80;1.07;;;;;;;;;;5066047;28;20480;-60
2021/10/01 09:31:29;;;;;;;4.83;1.00;;;;;;;;;;5059880;28;20491;-53
2021/10/01 09:33:57;;;;;;;1.50;0.90;;;;;;;;;;5064820;28;20453;-51
2021/10/01 09:36:25;;;;;;;3.83;1.00;;;;;;;;;;5053340;28;20462;-56
2021/10/01 09:38:54;;;;;;;1.20;0.90;;;;;;;;;;5045796;28;20807;-56
2021/10/01 09:41:25;;;;;;;4.63;1.40;;;;;;;;;;5051112;28;20482;-57
2021/10/01 09:43:59;;;;;;;2.50;0.90;;;;;;;;;;5056735;28;20785;-57
2021/10/01 09:46:34;;;;;;;1.60;0.70;;;;;;;;;;5054761;28;20435;-57
2021/10/01 09:49:02;;;;;;;2.23;1.00;;;;;;;;;;5032425;28;20500;-52
2021/10/01 09:51:30;;;;;;;2.17;1.10;;;;;;;;;;5037846;28;20463;-56
2021/10/01 09:54:01;;;;;;;1.03;0.80;;;;;;;;;;5035705;28;20466;-52
2021/10/01 09:56:29;;;;;;;2.60;1.00;;;;;;;;;;5044431;28;20459;-55
2021/10/01 09:59:07;;;;;;;2.43;1.00;;;;;;;;;;5032166;28;20991;-55
2021/10/01 10:01:34;;;;;;;1.40;0.90;;;;;;;;;;5044270;28;20519;-54
2021/10/01 10:04:14;;;;;;;2.10;1.10;;;;;;;;;;5042932;28;20839;-57
2021/10/01 10:06:43;;;;;;;1.40;0.80;;;;;;;;;;5043121;28;20889;-57
2021/10/01 10:09:12;;;;;;;2.27;0.97;;;;;;;;;;5039579;28;20451;-57
2021/10/01 10:11:40;;;;;;;2.67;1.03;;;;;;;;;;5051986;28;20458;-49
2021/10/01 10:14:09;;;;;;;1.43;0.77;;;;;;;;;;5039216;28;20834;-56
2021/10/01 10:16:36;;;;;;;1.77;0.87;;;;;;;;;;5032767;28;20509;-51
2021/10/01 10:19:05;;;;;;;1.90;0.90;;;;;;;;;;5053196;28;20445;-54
2021/10/01 10:21:32;;;;;;;1.20;0.70;;;;;;;;;;5050477;28;20466;-53
2021/10/01 10:23:59;;;;;;;1.47;0.83;;;;;;;;;;5040579;28;20489;-57
2021/10/01 10:26:28;;;;;;;1.93;0.97;;;;;;;;;;5040757;28;20954;-55
2021/10/01 10:28:56;;;;;;;1.60;0.87;;;;;;;;;;5043631;28;20466;-54
2021/10/01 10:31:26;;;;;;;2.83;0.80;;;;;;;;;;5045522;28;20450;-57
2021/10/01 10:33:56;;;;;;;5.57;0.90;;;;;;;;;;5051594;28;20450;-56
2021/10/01 10:36:27;;;;;;;1.10;0.70;;;;;;;;;;5043032;28;20461;-55
2021/10/01 10:38:54;;;;;;;1.10;0.70;;;;;;;;;;5038150;28;20949;-57
2021/10/01 10:41:22;;;;;;;3.10;1.03;;;;;;;;;;5048837;28;20458;-58
2021/10/01 10:43:51;;;;;;;2.00;0.80;;;;;;;;;;5045720;28;20535;-58
2021/10/01 10:46:33;;;;;;;2.83;0.90;;;;;;;;;;5031560;28;20492;-58
2021/10/01 10:49:14;;;;;;;1.50;0.90;;;;;;;;;;5042065;28;20446;-58
2021/10/01 10:51:56;;;;;;;1.00;0.77;;;;;;;;;;5044921;28;20451;-57
2021/10/01 10:54:23;;;;;;;1.70;1.00;;;;;;;;;;5043449;28;20488;-56
2021/10/01 10:57:15;;;;;;;1.10;0.80;;;;;;;;;;5048034;28;20519;-54
2021/10/01 10:59:43;;;;;;;1.00;0.80;;;;;;;;;;5032328;28;20501;-56
2021/10/01 11:02:25;;;;;;;1.50;1.03;;;;;;;;;;5051379;28;20469;-56
2021/10/01 11:04:52;;;;;;;2.37;1.27;;;;;;;;;;5044171;28;20504;-55
2021/10/01 11:07:38;;;;;;;1.63;0.80;;;;;;;;;;5049164;28;20543;-54
2021/10/01 11:10:23;;;;;;;1.57;0.90;;;;;;;;;;5047747;28;20449;-56
2021/10/01 11:12:51;;;;;;;2.50;0.77;;;;;;;;;;5039447;28;20466;-61
2021/10/01 11:15:20;;;;;;;2.53;0.77;;;;;;;;;;5038471;28;20464;-65
2021/10/01 11:18:06;;;;;;;4.20;1.20;;;;;;;;;;5046716;28;20461;-56
2021/10/01 11:20:37;;;;;;;4.53;1.00;;;;;;;;;;5044021;28;20509;-54
2021/10/01 11:23:14;;;;;;;2.60;1.00;;;;;;;;;;5031504;28;20489;-57
2021/10/01 11:25:43;;;;;;;1.37;0.80;;;;;;;;;;5040834;28;20457;-58
2021/10/01 11:28:12;;;;;;;3.30;0.80;;;;;;;;;;5039396;28;20454;-55
2021/10/01 11:30:40;;;;;;;3.13;1.00;;;;;;;;;;5037798;28;20463;-62
2021/10/01 11:33:09;;;;;;;1.10;0.80;;;;;;;;;;5045656;28;20458;-64
2021/10/01 11:35:45;;;;;;;1.60;0.90;;;;;;;;;;5038403;28;20462;-61
2021/10/01 11:38:19;;;;;;;2.97;0.80;;;;;;;;;;5042268;28;20801;-58
2021/10/01 11:40:47;;;;;;;1.27;0.83;;;;;;;;;;5049861;28;20450;-56
2021/10/01 11:43:14;;;;;;;5.33;0.90;;;;;;;;;;5042425;28;20483;-56
2021/10/01 11:45:45;;;;;;;2.07;1.00;;;;;;;;;;5045815;28;20443;-55
2021/10/01 11:48:13;;;;;;;1.77;0.90;;;;;;;;;;5057683;28;21001;-57
2021/10/01 11:50:41;;;;;;;2.50;0.90;;;;;;;;;;5045568;28;20463;-62
2021/10/01 11:53:16;;;;;;;1.60;0.87;;;;;;;;;;5045468;28;20957;-59
2021/10/01 11:55:50;;;;;;;1.10;0.90;;;;;;;;;;5066493;28;20511;-62
2021/10/01 11:58:18;;;;;;;1.30;0.90;;;;;;;;;;5050093;28;20451;-62
2021/10/01 12:00:46;;;;;;;1.30;0.80;;;;;;;;;;5034224;28;20493;-62
2021/10/01 12:03:14;;;;;;;1.23;0.80;;;;;;;;;;5049779;28;20527;-64
2021/10/01 12:05:41;;;;;;;1.80;0.80;;;;;;;;;;5039361;28;20521;-60
2021/10/01 12:08:10;;;;;;;1.53;0.87;;;;;;;;;;5051437;28;20507;-61
2021/10/01 12:10:38;;;;;;;1.57;0.80;;;;;;;;;;5051722;28;20461;-55
2021/10/01 12:13:08;;;;;;;1.37;0.90;;;;;;;;;;5050656;28;20871;-55
2021/10/01 12:15:36;;;;;;;3.10;1.10;;;;;;;;;;5052511;28;20786;-60
2021/10/01 12:18:04;;;;;;;1.30;0.80;;;;;;;;;;5042732;28;20451;-55
2021/10/01 12:20:43;;;;;;;1.53;1.07;;;;;;;;;;5045107;28;20458;-60
2021/10/01 12:23:18;;;;;;;1.30;0.70;;;;;;;;;;5037166;28;20575;-58
2021/10/01 12:25:45;;;;;;;1.33;0.90;;;;;;;;;;5033748;28;20945;-56
2021/10/01 12:28:12;;;;;;;1.37;0.90;;;;;;;;;;5043257;28;20534;-61
2021/10/01 12:30:39;;;;;;;2.23;1.00;;;;;;;;;;5061508;28;20457;-55
2021/10/01 12:33:09;;;;;;;1.00;0.70;;;;;;;;;;5051886;28;20500;-56
2021/10/01 12:35:36;;;;;;;4.03;1.00;;;;;;;;;;5049904;28;20680;-53
2021/10/01 12:38:03;;;;;;;1.40;0.80;;;;;;;;;;5043008;28;20496;-55
2021/10/01 12:40:30;;;;;;;1.10;0.73;;;;;;;;;;5053468;28;20512;-60
2021/10/01 12:42:57;;;;;;;1.23;0.80;;;;;;;;;;5056199;28;20516;-61
2021/10/01 12:45:24;;;;;;;0.90;0.60;;;;;;;;;;5046709;28;20543;-58
2021/10/01 12:47:51;;;;;;;1.20;0.80;;;;;;;;;;5044656;28;20821;-62
2021/10/01 12:50:21;;;;;;;1.43;0.80;;;;;;;;;;5035484;28;20466;-58
2021/10/01 12:52:55;;;;;;;3.47;1.10;;;;;;;;;;5037783;28;20494;-61
2021/10/01 12:55:22;;;;;;;3.80;1.10;;;;;;;;;;5040135;28;20466;-59
2021/10/01 12:57:49;;;;;;;1.10;0.70;;;;;;;;;;5033033;28;20462;-54
2021/10/01 13:00:17;;;;;;;1.87;0.90;;;;;;;;;;5053053;28;20454;-63
2021/10/01 13:02:45;;;;;;;1.53;0.70;;;;;;;;;;5041984;28;20811;-62
2021/10/01 13:05:15;;;;;;;2.40;0.90;;;;;;;;;;5041774;28;20521;-63
2021/10/01 13:07:43;;;;;;;1.13;0.90;;;;;;;;;;5047325;28;20524;-54
2021/10/01 13:10:27;;;;;;;1.10;0.77;;;;;;;;;;5033209;28;20492;-54
2021/10/01 13:12:56;;;;;;;1.20;0.70;;;;;;;;;;5046878;28;20462;-54
2021/10/01 13:15:24;;;;;;;1.80;0.97;;;;;;;;;;5043717;28;20449;-56
2021/10/01 13:18:16;;;;;;;2.50;0.70;;;;;;;;;;5036882;28;20536;-53
2021/10/01 13:20:45;;;;;;;1.10;0.70;;;;;;;;;;5044004;28;20814;-56
2021/10/01 13:23:15;;;;;;;1.30;0.97;;;;;;;;;;5048471;28;20579;-49
2021/10/01 13:25:47;;;;;;;1.10;0.80;;;;;;;;;;5047321;28;20458;-51
2021/10/01 13:28:14;;;;;;;1.10;0.80;;;;;;;;;;5049475;28;20462;-47
2021/10/01 13:30:42;;;;;;;1.00;0.70;;;;;;;;;;5038680;28;20916;-47
2021/10/01 13:33:09;;;;;;;1.93;0.90;;;;;;;;;;5039445;28;20453;-51
2021/10/01 13:35:37;;;;;;;1.40;0.80;;;;;;;;;;5044132;28;20458;-48
2021/10/01 13:38:05;;;;;;;1.20;0.90;;;;;;;;;;5049704;28;20457;-50
2021/10/01 13:40:33;;;;;;;1.97;0.90;;;;;;;;;;5051489;28;20545;-53
2021/10/01 13:43:00;;;;;;;3.13;0.77;;;;;;;;;;5043825;28;20481;-53
2021/10/01 13:45:27;;;;;;;1.30;0.73;;;;;;;;;;5062917;28;20449;-49
2021/10/01 13:47:54;;;;;;;3.73;0.80;;;;;;;;;;5047599;28;21229;-47
2021/10/01 13:50:21;;;;;;;1.40;0.90;;;;;;;;;;5040496;28;20883;-48
2021/10/01 13:52:49;;;;;;;4.60;1.07;;;;;;;;;;5059744;28;20445;-48
2021/10/01 13:55:16;;;;;;;1.00;0.77;;;;;;;;;;5052329;28;20442;-48
2021/10/01 13:57:46;;;;;;;1.10;0.87;;;;;;;;;;5049874;28;20461;-49
2021/10/01 14:00:14;;;;;;;1.20;0.90;;;22.60;97.20;;;;;;5041698;28;20466;-51
2021/10/01 14:02:42;;;;;;;1.70;0.90;;;22.70;97.50;;;;;;5055566;28;20892;-60
2021/10/01 14:05:11;;;;;;;1.53;0.87;;;22.80;97.30;;;;;;5040845;28;20462;-54
2021/10/01 14:07:39;;;;;;;0.90;0.70;;;22.90;97.00;;;;;;5049203;28;20941;-64
2021/10/01 14:10:09;;;;;;;1.20;0.80;;;23.00;96.80;;;;;;5043705;28;20458;-63
2021/10/01 14:12:36;;;;;;;1.83;1.27;;;23.10;96.80;;;;;;5038484;28;20458;-64
2021/10/01 14:15:05;;;;;;;1.70;0.90;;;23.10;96.80;;;;;;5050144;28;20453;-63
2021/10/01 14:17:31;;;;;;;1.50;1.10;;;23.10;96.80;;;;;;5034981;28;20512;-63
2021/10/01 14:19:58;;;;;;;1.30;0.83;;;23.00;96.70;;;;;;5034105;28;20972;-64
2021/10/01 14:22:25;;;;;;;1.87;0.77;;;23.00;96.90;;;;;;5058297;28;20777;-62
2021/10/01 14:24:51;;;;;;;1.60;0.90;;;23.10;97.50;;;;;;5051829;28;20494;-59
2021/10/01 14:27:18;;;;;;;1.47;0.90;;;23.10;97.20;;;;;;5036138;28;20518;-65
2021/10/01 14:29:45;;;;;;;3.93;0.90;;;23.20;97.30;;;;;;5049321;28;20528;-65
2021/10/01 14:32:13;;;;;;;1.27;0.80;;;23.20;97.20;;;;;;5046460;28;21012;-64
2021/10/01 14:34:40;;;;;;;4.60;1.00;;;23.30;97.20;;;;;;5036650;28;20853;-69
2021/10/01 14:37:07;;;;;;;2.00;0.70;;;23.30;97.20;;;;;;5051050;28;20450;-70
2021/10/01 14:39:34;;;;;;;3.30;0.90;;;23.30;97.10;;;;;;5031022;28;21007;-64
2021/10/01 14:42:00;;;;;;;1.53;0.80;;;23.30;97.10;;;;;;5031833;28;20454;-66
2021/10/01 14:44:27;;;;;;;1.27;0.80;;;23.40;97.10;;;;;;5067185;28;20983;-67
2021/10/01 14:46:54;;;;;;;1.17;0.80;;;23.40;97.10;;;;;;5069196;28;20453;-67
2021/10/01 14:49:22;;;;;;;0.97;0.70;;;23.40;97.10;;;;;;5040780;28;20470;-63
2021/10/01 14:51:49;;;;;;;1.50;1.07;;;23.40;97.20;;;;;;5042043;28;20538;-69
2021/10/01 14:54:16;;;;;;;1.07;0.80;;;23.40;97.20;;;;;;5047513;28;20766;-68
2021/10/01 14:56:43;;;;;;;1.57;0.80;;;23.40;97.20;;;;;;5045398;28;20462;-69
2021/10/01 14:59:09;;;;;;;1.00;0.80;;;23.50;97.30;;;;;;5032589;28;20446;-70
2021/10/01 15:01:36;;;;;;;1.00;0.80;;;23.40;97.20;;;;;;5050783;28;20458;-68
2021/10/01 15:04:03;;;;;;;2.00;0.80;;;23.50;97.30;;;;;;5046575;28;20909;-69
2021/10/01 15:06:31;;;;;;;1.20;1.00;;;23.50;97.40;;;;;;5037308;28;20474;-64
2021/10/01 15:08:57;;;;;;;1.30;0.80;;;23.50;97.30;;;;;;5039967;28;20433;-60
2021/10/01 15:11:24;;;;;;;1.23;0.90;;;23.50;97.50;;;;;;5034293;28;20524;-67
2021/10/01 15:13:51;;;;;;;1.47;0.80;;;23.50;97.50;;;;;;5045188;28;20453;-67
2021/10/01 15:16:17;;;;;;;1.00;0.73;;;23.50;97.40;;;;;;5033451;28;20481;-68
2021/10/01 15:18:44;;;;;;;0.97;0.70;;;23.50;97.60;;;;;;5045011;28;20872;-68
2021/10/01 15:21:11;;;;;;;1.00;0.80;;;23.50;97.60;;;;;;5043853;28;20469;-62
2021/10/01 15:23:39;;;;;;;1.30;0.70;;;23.50;97.70;;;;;;5060741;28;20522;-63
2021/10/01 15:26:06;;;;;;;1.10;0.70;;;23.50;97.70;;;;;;5035527;28;20455;-65
2021/10/01 15:28:33;;;;;;;2.30;1.00;;;23.50;97.80;;;;;;5031100;28;20442;-64
2021/10/01 15:30:59;;;;;;;1.30;0.90;;;23.50;97.80;;;;;;5043594;28;20464;-64
2021/10/01 15:33:27;;;;;;;1.40;0.70;;;23.50;98.10;;;;;;5066420;28;20529;-63
2021/10/01 15:35:54;;;;;;;1.40;1.00;;;23.50;97.70;;;;;;5049564;28;20439;-62
2021/10/01 15:38:20;;;;;;;1.50;1.10;;;23.30;95.10;;;;;;5057993;28;20851;-60
2021/10/01 15:40:49;;;;;;;2.33;1.00;;;23.30;95.00;;;;;;5042317;28;20453;-62
2021/10/01 15:43:16;;;;;;;3.97;1.00;;;23.20;94.50;;;;;;5042321;28;20473;-61
2021/10/01 15:45:45;;;;;;;3.27;0.93;;;23.10;93.90;;;;;;5047439;28;20521;-59
2021/10/01 15:48:12;;;;;;;2.43;0.90;;;23.00;93.70;;;;;;5053354;28;20465;-60
2021/10/01 15:50:39;;;;;;;3.20;1.20;;;23.00;93.10;;;;;;5049445;28;20450;-62
2021/10/01 15:53:08;;;;;;;2.70;1.10;;;23.00;93.40;;;;;;5053905;28;20462;-64
2021/10/01 15:55:36;;;;;;;2.80;1.30;;;23.00;93.20;;;;;;5046798;28;20454;-70
2021/10/01 15:58:06;;;;;;;3.70;1.30;;;23.00;93.40;;;;;;5042075;28;20462;-60